sensor_id;sensor_type;location;lat;lon;timestamp;pressure;altitude;pressure_sealevel;temperature;humidity
61384;BME280;63511;49.346;8.798;2022-12-18T00:01:53;101519.78;;;-5.55;64.18
61384;BME280;63511;49.346;8.798;2022-12-18T00:04:23;101521.78;;;-5.58;64.38
61384;BME280;63511;49.346;8.798;2022-12-18T00:06:49;101519.56;;;-5.57;64.31
61384;BME280;63511;49.346;8.798;2022-12-18T00:09:14;101513.00;;;-5.84;64.07
61384;BME280;63511;49.346;8.798;2022-12-18T00:11:40;101509.66;;;-5.90;64.46
61384;BME280;63511;49.346;8.798;2022-12-18T00:14:05;101516.22;;;-5.46;63.80
61384;BME280;63511;49.346;8.798;2022-12-18T00:16:33;101514.16;;;-5.71;62.26
61384;BME280;63511;49.346;8.798;2022-12-18T00:19:00;101513.28;;;-5.71;63.31
61384;BME280;63511;49.346;8.798;2022-12-18T00:21:29;101520.44;;;-5.56;62.76
61384;BME280;63511;49.346;8.798;2022-12-18T00:23:55;101522.25;;;-5.55;61.88
61384;BME280;63511;49.346;8.798;2022-12-18T00:26:26;101524.91;;;-5.59;63.08
61384;BME280;63511;49.346;8.798;2022-12-18T00:28:52;101524.50;;;-5.51;62.69
61384;BME280;63511;49.346;8.798;2022-12-18T00:31:20;101519.78;;;-5.55;63.39
61384;BME280;63511;49.346;8.798;2022-12-18T00:33:49;101529.41;;;-5.57;63.39
61384;BME280;63511;49.346;8.798;2022-12-18T00:36:17;101520.22;;;-5.52;63.09
61384;BME280;63511;49.346;8.798;2022-12-18T00:38:43;101530.06;;;-5.52;63.57
61384;BME280;63511;49.346;8.798;2022-12-18T00:41:15;101532.97;;;-5.60;63.00
61384;BME280;63511;49.346;8.798;2022-12-18T00:44:02;101528.72;;;-5.61;63.09
61384;BME280;63511;49.346;8.798;2022-12-18T00:46:28;101529.63;;;-5.44;64.14
61384;BME280;63511;49.346;8.798;2022-12-18T00:48:55;101523.84;;;-5.39;63.50
61384;BME280;63511;49.346;8.798;2022-12-18T00:51:25;101532.31;;;-5.42;63.12
61384;BME280;63511;49.346;8.798;2022-12-18T00:53:52;101517.53;;;-5.48;62.95
61384;BME280;63511;49.346;8.798;2022-12-18T00:56:17;101520.25;;;-5.46;62.93
61384;BME280;63511;49.346;8.798;2022-12-18T00:58:42;101540.81;;;-5.46;63.58
61384;BME280;63511;49.346;8.798;2022-12-18T01:01:08;101536.38;;;-5.26;63.18
61384;BME280;63511;49.346;8.798;2022-12-18T01:03:34;101532.34;;;-5.15;62.86
61384;BME280;63511;49.346;8.798;2022-12-18T01:06:05;101543.75;;;-5.21;63.42
61384;BME280;63511;49.346;8.798;2022-12-18T01:08:30;101538.38;;;-5.13;63.32
61384;BME280;63511;49.346;8.798;2022-12-18T01:10:56;101541.06;;;-5.22;62.61
61384;BME280;63511;49.346;8.798;2022-12-18T01:13:21;101540.19;;;-5.34;62.68
61384;BME280;63511;49.346;8.798;2022-12-18T01:15:50;101531.84;;;-5.57;63.37
61384;BME280;63511;49.346;8.798;2022-12-18T01:18:16;101533.66;;;-5.33;63.51
61384;BME280;63511;49.346;8.798;2022-12-18T01:20:43;101538.53;;;-5.67;64.30
61384;BME280;63511;49.346;8.798;2022-12-18T01:23:09;101541.25;;;-5.43;63.40
61384;BME280;63511;49.346;8.798;2022-12-18T01:25:38;101530.78;;;-5.31;63.83
61384;BME280;63511;49.346;8.798;2022-12-18T01:28:03;101528.09;;;-5.21;63.92
61384;BME280;63511;49.346;8.798;2022-12-18T01:30:28;101528.75;;;-5.17;63.33
61384;BME280;63511;49.346;8.798;2022-12-18T01:32:56;101529.44;;;-5.06;63.43
61384;BME280;63511;49.346;8.798;2022-12-18T01:35:21;101524.09;;;-4.98;62.63
61384;BME280;63511;49.346;8.798;2022-12-18T01:37:46;101529.91;;;-5.15;61.35
61384;BME280;63511;49.346;8.798;2022-12-18T01:40:12;101534.78;;;-5.48;61.69
61384;BME280;63511;49.346;8.798;2022-12-18T01:42:40;101533.25;;;-5.25;63.48
61384;BME280;63511;49.346;8.798;2022-12-18T01:50:16;101534.31;;;-5.57;61.97
61384;BME280;63511;49.346;8.798;2022-12-18T01:52:42;101543.66;;;-5.76;63.18
61384;BME280;63511;49.346;8.798;2022-12-18T01:55:09;101544.31;;;-5.77;64.50
61384;BME280;63511;49.346;8.798;2022-12-18T01:57:39;101547.50;;;-5.62;63.56
61384;BME280;63511;49.346;8.798;2022-12-18T02:00:09;101543.91;;;-5.58;63.07
61384;BME280;63511;49.346;8.798;2022-12-18T02:02:35;101528.97;;;-5.60;62.70
61384;BME280;63511;49.346;8.798;2022-12-18T02:05:03;101533.44;;;-5.51;63.94
61384;BME280;63511;49.346;8.798;2022-12-18T02:12:53;101521.09;;;-5.68;63.96
61384;BME280;63511;49.346;8.798;2022-12-18T02:15:27;101538.53;;;-5.67;62.35
61384;BME280;63511;49.346;8.798;2022-12-18T02:18:33;101540.59;;;-5.47;61.95
61384;BME280;63511;49.346;8.798;2022-12-18T02:26:43;101540.34;;;-5.66;63.72
61384;BME280;63511;49.346;8.798;2022-12-18T02:29:12;101538.75;;;-5.87;64.37
61384;BME280;63511;49.346;8.798;2022-12-18T02:31:43;101541.88;;;-5.77;64.37
61384;BME280;63511;49.346;8.798;2022-12-18T02:34:13;101544.69;;;-6.08;63.52
61384;BME280;63511;49.346;8.798;2022-12-18T02:36:43;101549.00;;;-5.90;63.70
61384;BME280;63511;49.346;8.798;2022-12-18T02:39:11;101549.69;;;-5.74;64.62
61384;BME280;63511;49.346;8.798;2022-12-18T02:41:38;101547.25;;;-5.63;64.87
61384;BME280;63511;49.346;8.798;2022-12-18T02:44:09;101548.59;;;-5.71;64.04
61384;BME280;63511;49.346;8.798;2022-12-18T02:46:39;101543.66;;;-5.87;63.17
61384;BME280;63511;49.346;8.798;2022-12-18T02:49:18;101535.13;;;-5.84;63.36
61384;BME280;63511;49.346;8.798;2022-12-18T02:57:44;101541.75;;;-6.11;63.75
61384;BME280;63511;49.346;8.798;2022-12-18T03:07:56;101530.78;;;-6.18;64.48
61384;BME280;63511;49.346;8.798;2022-12-18T03:10:27;101521.81;;;-6.29;64.20
61384;BME280;63511;49.346;8.798;2022-12-18T03:13:04;101525.38;;;-6.27;65.88
61384;BME280;63511;49.346;8.798;2022-12-18T03:15:36;101535.75;;;-6.13;64.32
61384;BME280;63511;49.346;8.798;2022-12-18T03:18:06;101535.69;;;-6.24;64.92
61384;BME280;63511;49.346;8.798;2022-12-18T03:20:35;101541.78;;;-6.05;65.10
61384;BME280;63511;49.346;8.798;2022-12-18T03:23:15;101533.34;;;-6.45;64.04
61384;BME280;63511;49.346;8.798;2022-12-18T03:25:42;101531.47;;;-6.57;64.24
61384;BME280;63511;49.346;8.798;2022-12-18T03:28:15;101545.28;;;-6.25;65.74
61384;BME280;63511;49.346;8.798;2022-12-18T03:30:43;101550.38;;;-6.67;67.30
61384;BME280;63511;49.346;8.798;2022-12-18T03:33:21;101550.50;;;-6.50;64.71
61384;BME280;63511;49.346;8.798;2022-12-18T03:35:49;101552.97;;;-6.50;64.73
61384;BME280;63511;49.346;8.798;2022-12-18T03:38:18;101539.34;;;-6.48;65.38
61384;BME280;63511;49.346;8.798;2022-12-18T03:43:25;101520.94;;;-6.24;64.87
61384;BME280;63511;49.346;8.798;2022-12-18T03:46:05;101533.16;;;-6.35;65.02
61384;BME280;63511;49.346;8.798;2022-12-18T03:48:38;101532.22;;;-6.41;66.06
61384;BME280;63511;49.346;8.798;2022-12-18T03:51:15;101540.19;;;-6.10;66.27
61384;BME280;63511;49.346;8.798;2022-12-18T03:54:12;101532.66;;;-5.95;64.51
61384;BME280;63511;49.346;8.798;2022-12-18T03:56:42;101519.97;;;-5.70;63.90
61384;BME280;63511;49.346;8.798;2022-12-18T03:59:14;101531.53;;;-6.03;64.52
61384;BME280;63511;49.346;8.798;2022-12-18T04:01:44;101543.44;;;-5.72;63.35
61384;BME280;63511;49.346;8.798;2022-12-18T04:04:11;101539.22;;;-5.62;63.99
61384;BME280;63511;49.346;8.798;2022-12-18T04:06:38;101539.22;;;-5.62;63.60
61384;BME280;63511;49.346;8.798;2022-12-18T04:09:05;101534.25;;;-5.90;63.03
61384;BME280;63511;49.346;8.798;2022-12-18T04:11:30;101545.41;;;-5.86;62.87
61384;BME280;63511;49.346;8.798;2022-12-18T04:13:58;101543.66;;;-5.87;64.47
61384;BME280;63511;49.346;8.798;2022-12-18T04:16:27;101542.09;;;-5.65;63.18
61384;BME280;63511;49.346;8.798;2022-12-18T04:18:53;101548.97;;;-5.95;63.39
61384;BME280;63511;49.346;8.798;2022-12-18T04:21:21;101560.31;;;-6.13;62.68
61384;BME280;63511;49.346;8.798;2022-12-18T04:23:47;101558.09;;;-6.06;62.94
61384;BME280;63511;49.346;8.798;2022-12-18T04:26:13;101547.38;;;-6.01;64.75
61384;BME280;63511;49.346;8.798;2022-12-18T04:28:38;101536.94;;;-5.83;63.58
61384;BME280;63511;49.346;8.798;2022-12-18T04:31:03;101544.03;;;-6.07;64.23
61384;BME280;63511;49.346;8.798;2022-12-18T04:33:31;101543.25;;;-6.28;64.56
61384;BME280;63511;49.346;8.798;2022-12-18T04:35:57;101540.72;;;-6.02;65.05
61384;BME280;63511;49.346;8.798;2022-12-18T04:38:26;101539.53;;;-6.15;63.98
61384;BME280;63511;49.346;8.798;2022-12-18T04:40:52;101533.50;;;-6.11;64.21
61384;BME280;63511;49.346;8.798;2022-12-18T04:43:19;101529.19;;;-6.29;64.18
61384;BME280;63511;49.346;8.798;2022-12-18T04:45:45;101528.81;;;-6.10;64.75
61384;BME280;63511;49.346;8.798;2022-12-18T04:48:11;101531.75;;;-5.95;64.78
61384;BME280;63511;49.346;8.798;2022-12-18T04:50:37;101539.78;;;-6.08;63.23
61384;BME280;63511;49.346;8.798;2022-12-18T04:53:02;101535.81;;;-5.90;63.82
61384;BME280;63511;49.346;8.798;2022-12-18T04:55:27;101540.72;;;-5.85;63.84
61384;BME280;63511;49.346;8.798;2022-12-18T04:57:53;101532.03;;;-5.77;63.62
61384;BME280;63511;49.346;8.798;2022-12-18T05:00:19;101533.81;;;-5.93;62.51
61384;BME280;63511;49.346;8.798;2022-12-18T05:02:46;101540.72;;;-5.85;63.75
61384;BME280;63511;49.346;8.798;2022-12-18T05:05:19;101540.03;;;-5.95;63.05
61384;BME280;63511;49.346;8.798;2022-12-18T05:07:46;101547.81;;;-6.09;63.32
61384;BME280;63511;49.346;8.798;2022-12-18T05:10:11;101542.03;;;-6.04;63.06
61384;BME280;63511;49.346;8.798;2022-12-18T05:12:37;101553.16;;;-6.17;62.95
61384;BME280;63511;49.346;8.798;2022-12-18T05:15:22;101563.31;;;-5.93;64.16
61384;BME280;63511;49.346;8.798;2022-12-18T05:17:47;101561.53;;;-5.77;62.96
61384;BME280;63511;49.346;8.798;2022-12-18T05:20:15;101563.56;;;-5.80;63.00
61384;BME280;63511;49.346;8.798;2022-12-18T05:22:43;101562.19;;;-5.84;63.56
61384;BME280;63511;49.346;8.798;2022-12-18T05:25:09;101564.41;;;-5.96;62.56
61384;BME280;63511;49.346;8.798;2022-12-18T05:27:36;101554.75;;;-6.06;61.69
61384;BME280;63511;49.346;8.798;2022-12-18T05:30:04;101565.94;;;-6.03;62.21
61384;BME280;63511;49.346;8.798;2022-12-18T05:32:32;101575.38;;;-5.83;63.50
61384;BME280;63511;49.346;8.798;2022-12-18T05:34:59;101586.53;;;-5.85;61.90
61384;BME280;63511;49.346;8.798;2022-12-18T05:37:25;101575.03;;;-6.18;62.88
61384;BME280;63511;49.346;8.798;2022-12-18T05:39:50;101575.69;;;-6.19;63.71
61384;BME280;63511;49.346;8.798;2022-12-18T05:42:15;101575.84;;;-5.91;63.40
61384;BME280;63511;49.346;8.798;2022-12-18T05:44:41;101576.03;;;-5.90;63.80
61384;BME280;63511;49.346;8.798;2022-12-18T05:47:06;101584.47;;;-6.05;63.49
61384;BME280;63511;49.346;8.798;2022-12-18T05:49:34;101581.50;;;-6.19;62.13
61384;BME280;63511;49.346;8.798;2022-12-18T05:52:01;101576.97;;;-6.27;62.75
61384;BME280;63511;49.346;8.798;2022-12-18T05:54:30;101573.97;;;-6.04;63.72
61384;BME280;63511;49.346;8.798;2022-12-18T05:56:56;101569.03;;;-6.09;63.25
61384;BME280;63511;49.346;8.798;2022-12-18T05:59:22;101567.19;;;-6.21;63.24
61384;BME280;63511;49.346;8.798;2022-12-18T06:01:47;101567.88;;;-6.22;63.77
61384;BME280;63511;49.346;8.798;2022-12-18T06:04:12;101558.03;;;-6.22;64.33
61384;BME280;63511;49.346;8.798;2022-12-18T06:06:38;101572.06;;;-6.27;64.68
61384;BME280;63511;49.346;8.798;2022-12-18T06:09:04;101571.22;;;-6.16;65.95
61384;BME280;63511;49.346;8.798;2022-12-18T06:11:37;101571.72;;;-6.13;64.92
61384;BME280;63511;49.346;8.798;2022-12-18T06:14:04;101577.59;;;-6.02;64.43
61384;BME280;63511;49.346;8.798;2022-12-18T06:16:30;101582.72;;;-6.00;65.08
61384;BME280;63511;49.346;8.798;2022-12-18T06:19:00;101587.72;;;-6.64;66.52
61384;BME280;63511;49.346;8.798;2022-12-18T06:21:28;101581.84;;;-6.70;66.89
61384;BME280;63511;49.346;8.798;2022-12-18T06:23:57;101592.22;;;-6.24;65.72
61384;BME280;63511;49.346;8.798;2022-12-18T06:26:22;101593.59;;;-6.15;64.58
61384;BME280;63511;49.346;8.798;2022-12-18T06:28:47;101591.00;;;-5.94;64.02
61384;BME280;63511;49.346;8.798;2022-12-18T06:31:13;101593.06;;;-5.80;64.45
61384;BME280;63511;49.346;8.798;2022-12-18T06:33:38;101589.22;;;-5.95;63.06
61384;BME280;63511;49.346;8.798;2022-12-18T06:36:11;101603.06;;;-6.01;62.49
61384;BME280;63511;49.346;8.798;2022-12-18T06:38:40;101599.13;;;-6.21;62.88
61384;BME280;63511;49.346;8.798;2022-12-18T06:41:17;101601.72;;;-5.99;63.83
61384;BME280;63511;49.346;8.798;2022-12-18T06:43:44;101603.53;;;-5.98;62.81
61384;BME280;63511;49.346;8.798;2022-12-18T06:46:12;101607.13;;;-5.79;62.89
61384;BME280;63511;49.346;8.798;2022-12-18T06:48:37;101608.75;;;-6.23;63.58
61384;BME280;63511;49.346;8.798;2022-12-18T06:51:03;101612.28;;;-6.26;61.77
61384;BME280;63511;49.346;8.798;2022-12-18T06:53:29;101625.91;;;-6.28;62.21
61384;BME280;63511;49.346;8.798;2022-12-18T06:56:02;101625.22;;;-6.33;62.63
61384;BME280;63511;49.346;8.798;2022-12-18T06:58:28;101617.59;;;-6.34;63.17
61384;BME280;63511;49.346;8.798;2022-12-18T07:00:59;101630.00;;;-6.18;63.62
61384;BME280;63511;49.346;8.798;2022-12-18T07:03:25;101633.66;;;-6.36;63.63
61384;BME280;63511;49.346;8.798;2022-12-18T07:05:55;101630.16;;;-6.59;64.43
61384;BME280;63511;49.346;8.798;2022-12-18T07:08:22;101631.94;;;-6.26;64.98
61384;BME280;63511;49.346;8.798;2022-12-18T07:10:48;101637.50;;;-6.01;64.79
61384;BME280;63511;49.346;8.798;2022-12-18T07:13:16;101634.59;;;-5.98;63.31
61384;BME280;63511;49.346;8.798;2022-12-18T07:15:43;101631.72;;;-5.96;65.03
61384;BME280;63511;49.346;8.798;2022-12-18T07:18:10;101638.16;;;-6.02;64.80
61384;BME280;63511;49.346;8.798;2022-12-18T07:20:38;101637.47;;;-6.07;65.25
61384;BME280;63511;49.346;8.798;2022-12-18T07:23:06;101640.47;;;-5.81;65.02
61384;BME280;63511;49.346;8.798;2022-12-18T07:25:36;101646.53;;;-5.68;65.68
61384;BME280;63511;49.346;8.798;2022-12-18T07:28:01;101634.06;;;-5.59;64.98
61384;BME280;63511;49.346;8.798;2022-12-18T07:30:29;101647.19;;;-5.69;63.77
61384;BME280;63511;49.346;8.798;2022-12-18T07:32:54;101643.53;;;-5.93;64.67
61384;BME280;63511;49.346;8.798;2022-12-18T07:35:22;101649.59;;;-5.91;64.60
61384;BME280;63511;49.346;8.798;2022-12-18T07:37:50;101651.41;;;-5.79;64.19
61384;BME280;63511;49.346;8.798;2022-12-18T07:40:15;101644.72;;;-5.80;64.19
61384;BME280;63511;49.346;8.798;2022-12-18T07:42:40;101650.97;;;-5.88;64.55
61384;BME280;63511;49.346;8.798;2022-12-18T07:45:06;101654.84;;;-5.62;64.80
61384;BME280;63511;49.346;8.798;2022-12-18T07:47:35;101661.06;;;-5.70;64.81
61384;BME280;63511;49.346;8.798;2022-12-18T07:50:02;101667.22;;;-5.45;64.95
61384;BME280;63511;49.346;8.798;2022-12-18T07:52:29;101666.13;;;-5.42;64.48
61384;BME280;63511;49.346;8.798;2022-12-18T07:54:58;101661.84;;;-5.43;63.22
61384;BME280;63511;49.346;8.798;2022-12-18T07:57:23;101664.78;;;-5.40;63.88
61384;BME280;63511;49.346;8.798;2022-12-18T07:59:51;101667.28;;;-5.34;64.50
61384;BME280;63511;49.346;8.798;2022-12-18T08:02:18;101663.25;;;-5.34;65.02
61384;BME280;63511;49.346;8.798;2022-12-18T08:04:44;101666.78;;;-5.37;64.50
61384;BME280;63511;49.346;8.798;2022-12-18T08:07:09;101666.88;;;-5.09;65.01
61384;BME280;63511;49.346;8.798;2022-12-18T08:09:37;101662.19;;;-5.02;65.96
61384;BME280;63511;49.346;8.798;2022-12-18T08:12:02;101675.56;;;-5.23;65.94
61384;BME280;63511;49.346;8.798;2022-12-18T08:14:30;101666.25;;;-4.75;68.24
61384;BME280;63511;49.346;8.798;2022-12-18T08:16:55;101666.06;;;-4.38;68.69
61384;BME280;63511;49.346;8.798;2022-12-18T08:19:23;101653.47;;;-4.17;67.52
61384;BME280;63511;49.346;8.798;2022-12-18T08:21:48;101656.13;;;-3.99;67.64
61384;BME280;63511;49.346;8.798;2022-12-18T08:24:14;101661.75;;;-3.94;66.82
61384;BME280;63511;49.346;8.798;2022-12-18T08:26:39;101660.16;;;-3.94;67.71
61384;BME280;63511;49.346;8.798;2022-12-18T08:29:08;101660.59;;;-3.85;67.58
61384;BME280;63511;49.346;8.798;2022-12-18T08:31:33;101654.06;;;-3.73;67.43
61384;BME280;63511;49.346;8.798;2022-12-18T08:34:01;101652.59;;;-3.44;66.73
61384;BME280;63511;49.346;8.798;2022-12-18T08:36:29;101651.41;;;-3.34;66.71
61384;BME280;63511;49.346;8.798;2022-12-18T08:38:57;101660.41;;;-3.35;66.87
61384;BME280;63511;49.346;8.798;2022-12-18T08:41:22;101659.44;;;-3.24;66.43
61384;BME280;63511;49.346;8.798;2022-12-18T08:43:48;101648.69;;;-3.30;66.80
61384;BME280;63511;49.346;8.798;2022-12-18T08:46:34;101648.97;;;-3.40;66.60
61384;BME280;63511;49.346;8.798;2022-12-18T08:49:03;101641.78;;;-3.38;67.81
61384;BME280;63511;49.346;8.798;2022-12-18T08:51:28;101635.88;;;-3.22;66.88
61384;BME280;63511;49.346;8.798;2022-12-18T08:53:56;101631.91;;;-2.98;66.32
61384;BME280;63511;49.346;8.798;2022-12-18T08:56:24;101628.13;;;-2.72;66.48
61384;BME280;63511;49.346;8.798;2022-12-18T08:58:53;101626.44;;;-2.61;65.35
61384;BME280;63511;49.346;8.798;2022-12-18T09:01:22;101629.63;;;-2.91;66.24
61384;BME280;63511;49.346;8.798;2022-12-18T09:03:51;101625.69;;;-2.78;66.91
61384;BME280;63511;49.346;8.798;2022-12-18T09:06:19;101627.59;;;-2.64;66.49
61384;BME280;63511;49.346;8.798;2022-12-18T09:08:45;101626.31;;;-2.73;65.42
61384;BME280;63511;49.346;8.798;2022-12-18T09:11:26;101626.31;;;-2.73;66.47
61384;BME280;63511;49.346;8.798;2022-12-18T09:13:52;101627.94;;;-2.50;65.74
61384;BME280;63511;49.346;8.798;2022-12-18T09:16:21;101614.50;;;-2.10;65.35
61384;BME280;63511;49.346;8.798;2022-12-18T09:18:46;101606.00;;;-2.18;64.48
61384;BME280;63511;49.346;8.798;2022-12-18T09:21:15;101608.44;;;-2.12;65.28
61384;BME280;63511;49.346;8.798;2022-12-18T09:23:41;101612.66;;;-2.77;65.39
61384;BME280;63511;49.346;8.798;2022-12-18T09:26:09;101612.88;;;-2.51;66.12
61384;BME280;63511;49.346;8.798;2022-12-18T09:28:37;101617.75;;;-2.22;65.51
61384;BME280;63511;49.346;8.798;2022-12-18T09:31:07;101607.56;;;-2.60;65.80
61384;BME280;63511;49.346;8.798;2022-12-18T09:33:35;101608.56;;;-2.23;66.28
61384;BME280;63511;49.346;8.798;2022-12-18T09:36:02;101612.16;;;-2.45;66.43
61384;BME280;63511;49.346;8.798;2022-12-18T09:38:28;101611.16;;;-2.34;65.81
61384;BME280;63511;49.346;8.798;2022-12-18T09:41:05;101608.22;;;-1.72;65.18
61384;BME280;63511;49.346;8.798;2022-12-18T09:43:39;101621.03;;;-2.34;65.48
61384;BME280;63511;49.346;8.798;2022-12-18T09:46:15;101614.25;;;-1.88;65.96
61384;BME280;63511;49.346;8.798;2022-12-18T09:48:49;101621.28;;;-2.62;65.50
61384;BME280;63511;49.346;8.798;2022-12-18T09:51:24;101631.72;;;-2.23;67.24
61384;BME280;63511;49.346;8.798;2022-12-18T09:53:58;101641.97;;;-2.38;65.99
61384;BME280;63511;49.346;8.798;2022-12-18T09:56:29;101632.16;;;-2.01;66.19
61384;BME280;63511;49.346;8.798;2022-12-18T09:59:00;101637.34;;;-2.00;66.69
61384;BME280;63511;49.346;8.798;2022-12-18T10:01:27;101627.81;;;-1.55;64.73
61384;BME280;63511;49.346;8.798;2022-12-18T10:03:58;101629.72;;;-1.29;64.28
61384;BME280;63511;49.346;8.798;2022-12-18T10:06:44;101638.94;;;-1.27;63.37
61384;BME280;63511;49.346;8.798;2022-12-18T10:17:42;101646.69;;;-0.45;61.56
61384;BME280;63511;49.346;8.798;2022-12-18T10:22:49;101623.56;;;-0.63;62.12
61384;BME280;63511;49.346;8.798;2022-12-18T10:25:28;101618.22;;;-0.54;61.83
61384;BME280;63511;49.346;8.798;2022-12-18T10:27:58;101618.41;;;-0.39;61.77
61384;BME280;63511;49.346;8.798;2022-12-18T10:30:28;101624.13;;;-0.71;62.69
61384;BME280;63511;49.346;8.798;2022-12-18T10:32:53;101622.78;;;-1.00;63.17
61384;BME280;63511;49.346;8.798;2022-12-18T10:35:25;101631.91;;;-0.50;63.14
61384;BME280;63511;49.346;8.798;2022-12-18T10:38:04;101618.31;;;-0.47;61.95
61384;BME280;63511;49.346;8.798;2022-12-18T10:40:30;101620.50;;;-0.30;61.96
61384;BME280;63511;49.346;8.798;2022-12-18T10:43:11;101620.00;;;-0.02;61.50
61384;BME280;63511;49.346;8.798;2022-12-18T10:45:40;101616.78;;;0.24;61.11
61384;BME280;63511;49.346;8.798;2022-12-18T10:48:19;101614.50;;;0.13;60.57
61384;BME280;63511;49.346;8.798;2022-12-18T10:50:49;101613.38;;;-0.21;61.18
61384;BME280;63511;49.346;8.798;2022-12-18T10:53:20;101606.69;;;-0.40;62.09
61384;BME280;63511;49.346;8.798;2022-12-18T10:55:46;101604.63;;;-0.50;61.66
61384;BME280;63511;49.346;8.798;2022-12-18T10:58:28;101588.06;;;-0.31;61.80
61384;BME280;63511;49.346;8.798;2022-12-18T11:03:35;101588.81;;;0.00;61.31
61384;BME280;63511;49.346;8.798;2022-12-18T11:06:21;101593.88;;;-0.56;62.56
61384;BME280;63511;49.346;8.798;2022-12-18T11:09:04;101585.25;;;-0.15;62.25
61384;BME280;63511;49.346;8.798;2022-12-18T11:11:32;101590.34;;;-0.58;62.14
61384;BME280;63511;49.346;8.798;2022-12-18T11:16:26;101580.38;;;-0.20;62.29
61384;BME280;63511;49.346;8.798;2022-12-18T11:18:53;101570.34;;;-0.15;63.07
61384;BME280;63511;49.346;8.798;2022-12-18T11:21:21;101576.25;;;0.18;61.99
61384;BME280;63511;49.346;8.798;2022-12-18T11:23:51;101569.91;;;0.08;62.93
61384;BME280;63511;49.346;8.798;2022-12-18T11:26:20;101571.84;;;0.35;61.08
61384;BME280;63511;49.346;8.798;2022-12-18T11:28:52;101580.31;;;0.50;61.00
61384;BME280;63511;49.346;8.798;2022-12-18T11:31:21;101572.91;;;0.57;60.77
61384;BME280;63511;49.346;8.798;2022-12-18T11:36:18;101581.94;;;0.37;61.74
61384;BME280;63511;49.346;8.798;2022-12-18T11:38:46;101582.84;;;0.57;60.63
61384;BME280;63511;49.346;8.798;2022-12-18T11:41:21;101574.22;;;0.80;60.35
61384;BME280;63511;49.346;8.798;2022-12-18T11:44:13;101572.59;;;1.01;60.76
61384;BME280;63511;49.346;8.798;2022-12-18T11:46:47;101569.09;;;1.06;59.74
61384;BME280;63511;49.346;8.798;2022-12-18T11:49:15;101569.00;;;1.45;59.71
61384;BME280;63511;49.346;8.798;2022-12-18T11:51:49;101561.59;;;1.25;59.74
61384;BME280;63511;49.346;8.798;2022-12-18T11:54:18;101552.31;;;1.44;59.93
61384;BME280;63511;49.346;8.798;2022-12-18T11:56:49;101549.34;;;1.61;59.10
61384;BME280;63511;49.346;8.798;2022-12-18T12:15:55;101538.69;;;1.28;60.96
61384;BME280;63511;49.346;8.798;2022-12-18T12:26:41;101546.78;;;1.20;60.62
61384;BME280;63511;49.346;8.798;2022-12-18T12:29:29;101544.44;;;0.68;60.77
61384;BME280;63511;49.346;8.798;2022-12-18T12:40:18;101537.16;;;1.77;59.32
61384;BME280;63511;49.346;8.798;2022-12-18T12:42:52;101545.03;;;1.19;60.36
61384;BME280;63511;49.346;8.798;2022-12-18T12:46:11;101545.75;;;1.52;59.70
61384;BME280;63511;49.346;8.798;2022-12-18T12:48:44;101548.16;;;1.71;59.56
61384;BME280;63511;49.346;8.798;2022-12-18T12:51:20;101553.22;;;1.52;59.54
61384;BME280;63511;49.346;8.798;2022-12-18T12:53:46;101560.66;;;1.79;59.59
61384;BME280;63511;49.346;8.798;2022-12-18T12:56:14;101550.00;;;1.87;58.95
61384;BME280;63511;49.346;8.798;2022-12-18T12:58:48;101526.22;;;1.55;60.38
61384;BME280;63511;49.346;8.798;2022-12-18T13:04:18;101524.28;;;1.59;60.10
61384;BME280;63511;49.346;8.798;2022-12-18T13:09:24;101516.41;;;1.49;60.64
61384;BME280;63511;49.346;8.798;2022-12-18T13:11:54;101511.13;;;1.00;61.40
61384;BME280;63511;49.346;8.798;2022-12-18T13:14:44;101505.16;;;1.39;60.89
61384;BME280;63511;49.346;8.798;2022-12-18T13:22:40;101498.09;;;1.49;60.16
61384;BME280;63511;49.346;8.798;2022-12-18T13:25:27;101498.34;;;1.71;59.39
61384;BME280;63511;49.346;8.798;2022-12-18T13:28:01;101489.84;;;1.69;60.50
61384;BME280;63511;49.346;8.798;2022-12-18T13:38:22;101492.75;;;1.94;59.37
61384;BME280;63511;49.346;8.798;2022-12-18T13:48:25;101477.19;;;1.68;60.16
61384;BME280;63511;49.346;8.798;2022-12-18T13:51:04;101480.53;;;1.54;60.89
61384;BME280;63511;49.346;8.798;2022-12-18T13:53:34;101479.09;;;1.56;60.19
61384;BME280;63511;49.346;8.798;2022-12-18T13:56:02;101466.38;;;1.75;60.27
61384;BME280;63511;49.346;8.798;2022-12-18T13:58:27;101460.69;;;1.76;60.60
61384;BME280;63511;49.346;8.798;2022-12-18T14:00:53;101457.75;;;1.51;60.52
61384;BME280;63511;49.346;8.798;2022-12-18T14:03:29;101459.09;;;1.35;60.91
61384;BME280;63511;49.346;8.798;2022-12-18T14:06:08;101470.69;;;1.90;60.12
61384;BME280;63511;49.346;8.798;2022-12-18T14:08:39;101474.03;;;1.83;61.00
61384;BME280;63511;49.346;8.798;2022-12-18T14:11:06;101467.56;;;2.12;60.18
61384;BME280;63511;49.346;8.798;2022-12-18T14:13:37;101467.19;;;2.02;59.98
61384;BME280;63511;49.346;8.798;2022-12-18T14:16:06;101467.09;;;1.74;59.99
61384;BME280;63511;49.346;8.798;2022-12-18T14:18:53;101474.91;;;1.69;60.43
61384;BME280;63511;49.346;8.798;2022-12-18T14:21:29;101482.88;;;1.60;60.85
61384;BME280;63511;49.346;8.798;2022-12-18T14:26:41;101471.50;;;1.69;60.86
61384;BME280;63511;49.346;8.798;2022-12-18T14:32:09;101475.78;;;1.77;60.85
61384;BME280;63511;49.346;8.798;2022-12-18T14:34:35;101476.84;;;1.65;60.42
61384;BME280;63511;49.346;8.798;2022-12-18T14:37:00;101475.31;;;1.39;61.33
61384;BME280;63511;49.346;8.798;2022-12-18T14:39:25;101474.75;;;1.82;60.56
61384;BME280;63511;49.346;8.798;2022-12-18T14:41:51;101470.47;;;1.33;61.90
61384;BME280;63511;49.346;8.798;2022-12-18T14:44:17;101466.53;;;1.69;61.54
61384;BME280;63511;49.346;8.798;2022-12-18T14:46:48;101468.72;;;1.80;60.98
61384;BME280;63511;49.346;8.798;2022-12-18T14:49:31;101468.72;;;1.87;60.84
61384;BME280;63511;49.346;8.798;2022-12-18T14:51:59;101476.69;;;1.70;61.38
61384;BME280;63511;49.346;8.798;2022-12-18T14:54:34;101478.06;;;1.61;61.75
61384;BME280;63511;49.346;8.798;2022-12-18T14:57:20;101478.22;;;1.22;62.05
61384;BME280;63511;49.346;8.798;2022-12-18T14:59:47;101474.34;;;1.24;62.24
61384;BME280;63511;49.346;8.798;2022-12-18T15:02:27;101474.03;;;1.35;61.98